Time;durP1;ratioP1;P1;durP2;ratioP2;P2;SDS_P1;SDS_P2;PMS_P1;PMS_P2;Temp;Humidity;BMP_temperature;BMP_pressure;BME280_temperature;BME280_humidity;BME280_pressure;Samples;Min_cycle;Max_cycle;Signal;HPM_P1;HPM_P2
2023/05/09 00:02:12;;;;;;;53.05;30.27;;;14.30;99.90;;;13.60;100.00;98174.88;4961938;28;20054;-77
2023/05/09 00:04:40;;;;;;;109.82;31.50;;;14.30;99.90;;;13.65;100.00;98182.50;4964068;28;20141;-77
2023/05/09 00:07:09;;;;;;;292.17;41.42;;;;;;;13.61;100.00;98180.94;4963842;28;20292;-77
2023/05/09 00:09:36;;;;;;;244.63;37.97;;;14.20;99.90;;;13.55;100.00;98174.25;4962970;28;20060;-77
2023/05/09 00:12:04;;;;;;;268.50;38.50;;;14.10;99.90;;;13.55;100.00;98168.19;4961691;28;20050;-77
2023/05/09 00:14:32;;;;;;;199.10;32.70;;;14.10;99.90;;;13.43;100.00;98169.56;4947531;28;20055;-77
2023/05/09 00:16:59;;;;;;;353.85;41.53;;;14.20;99.90;;;13.35;100.00;98172.53;4948110;28;20050;-77
2023/05/09 00:19:26;;;;;;;327.02;41.80;;;14.20;99.90;;;13.29;100.00;98169.34;4981348;28;20609;-77
2023/05/09 00:21:53;;;;;;;364.60;40.90;;;14.20;99.90;;;13.31;100.00;98170.13;4966100;28;20051;-77
2023/05/09 00:24:20;;;;;;;452.88;49.92;;;14.10;99.90;;;13.33;100.00;98168.28;4967056;28;21923;-77
2023/05/09 00:26:47;;;;;;;365.48;39.53;;;13.90;99.90;;;13.32;100.00;98159.63;4968182;28;20046;-77
2023/05/09 00:29:15;;;;;;;322.35;34.00;;;13.90;99.90;;;13.36;100.00;98152.50;4963305;28;20427;-77
2023/05/09 00:31:41;;;;;;;286.42;33.45;;;13.90;99.90;;;13.37;100.00;98146.41;4979519;28;20522;-77
2023/05/09 00:34:09;;;;;;;336.38;35.38;;;13.90;99.90;;;13.38;100.00;98150.69;4961309;28;20148;-77
2023/05/09 00:36:36;;;;;;;406.95;39.08;;;13.80;99.90;;;13.42;100.00;98147.03;4945176;28;20050;-77
2023/05/09 00:39:04;;;;;;;332.63;40.67;;;13.80;99.90;;;13.35;100.00;98141.22;4964181;28;20050;-77
2023/05/09 00:41:34;;;;;;;65.28;22.77;;;13.80;99.90;;;13.43;100.00;98140.03;4971243;28;20054;-77
2023/05/09 00:44:01;;;;;;;38.55;20.80;;;13.90;99.90;;;13.50;100.00;98133.63;4952254;28;20057;-76
2023/05/09 00:46:28;;;;;;;101.93;25.20;;;14.00;99.90;;;13.55;100.00;98132.53;4967491;28;20138;-77
2023/05/09 00:48:55;;;;;;;277.73;38.20;;;14.00;99.90;;;13.51;100.00;98132.72;4966563;28;20120;-76
2023/05/09 00:51:23;;;;;;;236.60;37.50;;;14.00;99.90;;;13.44;100.00;98118.28;4960696;28;20047;-77
2023/05/09 00:53:50;;;;;;;185.52;37.50;;;14.00;99.90;;;13.38;100.00;98125.44;4965783;28;20042;-76
2023/05/09 00:56:17;;;;;;;103.10;29.92;;;14.00;99.90;;;13.36;100.00;98122.09;4964128;28;20047;-76
2023/05/09 00:58:45;;;;;;;178.80;32.00;;;14.00;99.90;;;13.34;100.00;98116.09;4947442;28;20059;-77
2023/05/09 01:01:12;;;;;;;400.77;52.67;;;13.90;99.90;;;13.32;100.00;98111.84;4962941;28;20377;-77
2023/05/09 01:03:40;;;;;;;198.90;38.00;;;13.90;99.90;;;13.39;100.00;98115.88;4978568;28;20515;-76
2023/05/09 01:06:48;;;;;;;102.20;30.65;;;13.80;99.90;;;13.33;100.00;98111.78;4968455;28;20113;-77
2023/05/09 01:09:48;;;;;;;376.60;50.33;;;13.80;99.90;;;13.35;100.00;98112.56;4979136;28;20153;-77
2023/05/09 01:13:09;;;;;;;193.85;33.67;;;13.90;99.90;;;13.27;100.00;98101.59;4966593;28;20047;-77
2023/05/09 01:15:52;;;;;;;220.43;42.80;;;13.90;99.90;;;13.28;100.00;98099.88;4957168;28;20054;-77
2023/05/09 01:18:39;;;;;;;91.20;28.45;;;13.90;99.90;;;13.30;100.00;98098.06;4980137;28;20145;-76
2023/05/09 01:21:13;;;;;;;384.67;49.10;;;14.00;99.90;;;13.32;100.00;98099.66;4965001;28;20066;-77
2023/05/09 01:23:43;;;;;;;272.77;45.75;;;14.00;99.90;;;13.28;100.00;98102.47;4948442;28;20050;-77
2023/05/09 01:26:25;;;;;;;241.32;46.38;;;13.90;99.90;;;13.25;100.00;98092.13;4966169;28;20137;-77
2023/05/09 01:29:14;;;;;;;194.38;38.38;;;13.80;99.90;;;13.26;100.00;98091.25;4950539;28;20063;-77
2023/05/09 01:31:44;;;;;;;216.55;39.90;;;13.80;99.90;;;13.36;100.00;98092.53;4969570;28;20055;-77
2023/05/09 01:34:15;;;;;;;239.40;43.88;;;13.90;99.90;;;13.36;100.00;98089.94;4967708;28;20093;-76
2023/05/09 01:36:43;;;;;;;202.52;40.78;;;13.90;99.90;;;13.41;100.00;98090.59;4967683;28;20046;-77
2023/05/09 01:39:12;;;;;;;87.60;35.28;;;13.90;99.90;;;13.39;100.00;98090.66;4968357;28;20078;-77
2023/05/09 01:41:40;;;;;;;55.30;31.25;;;13.90;99.90;;;13.50;100.00;98090.16;4961956;28;20058;-77
2023/05/09 01:44:10;;;;;;;47.15;31.70;;;14.00;99.90;;;13.62;100.00;98086.13;4951487;28;20062;-77
2023/05/09 01:46:38;;;;;;;42.85;30.08;;;14.10;99.90;;;13.67;100.00;98081.53;4961403;28;20435;-77
2023/05/09 01:49:08;;;;;;;47.80;34.63;;;14.20;99.90;;;13.66;100.00;98081.59;4968460;28;20054;-77
2023/05/09 01:51:37;;;;;;;55.28;38.17;;;14.30;99.90;;;13.78;100.00;98086.25;4967513;28;20892;-77
2023/05/09 01:54:08;;;;;;;68.38;44.38;;;14.30;99.90;;;13.80;100.00;98084.44;4963325;28;20050;-77
2023/05/09 01:56:36;;;;;;;57.55;40.38;;;14.30;99.90;;;13.85;100.00;98084.22;4964811;28;20518;-77
2023/05/09 01:59:05;;;;;;;55.00;37.97;;;14.40;99.90;;;13.90;100.00;98082.22;4950850;28;20055;-77
2023/05/09 02:01:33;;;;;;;61.10;41.97;;;14.50;99.90;;;13.89;100.00;98076.16;4947702;28;20506;-77
2023/05/09 02:04:02;;;;;;;84.97;49.83;;;14.50;99.90;;;13.77;100.00;98074.94;4968605;28;20054;-77
2023/05/09 02:06:31;;;;;;;57.63;38.65;;;14.50;99.90;;;13.84;100.00;98062.47;4968615;28;20424;-77
2023/05/09 02:08:59;;;;;;;60.25;40.88;;;14.50;99.90;;;13.81;100.00;98063.47;4967073;28;20094;-77
2023/05/09 02:11:26;;;;;;;60.88;39.30;;;14.50;99.90;;;13.87;100.00;98070.16;4961590;28;20051;-77
2023/05/09 02:13:53;;;;;;;90.82;43.85;;;14.50;99.90;;;13.84;100.00;98066.84;4965421;28;20350;-77
2023/05/09 02:16:21;;;;;;;127.07;51.13;;;14.50;99.90;;;13.65;100.00;98059.88;4964133;28;20105;-77
2023/05/09 02:18:48;;;;;;;94.70;43.38;;;14.50;99.90;;;13.74;100.00;98061.22;4968283;28;20131;-79
2023/05/09 02:21:16;;;;;;;120.50;47.83;;;14.40;99.90;;;13.74;100.00;98064.69;4963034;28;20069;-77
2023/05/09 02:23:43;;;;;;;66.15;42.10;;;14.40;99.90;;;13.83;100.00;98060.78;4968996;28;20065;-77
2023/05/09 02:26:10;;;;;;;49.25;33.00;;;14.40;99.90;;;13.90;100.00;98058.72;4963930;28;20058;-78
2023/05/09 02:28:38;;;;;;;100.57;45.13;;;14.50;99.90;;;13.86;100.00;98050.19;4962482;28;20189;-77
2023/05/09 02:31:09;;;;;;;63.55;40.22;;;14.50;99.90;;;13.80;100.00;98051.34;4960996;28;20105;-77
2023/05/09 02:33:37;;;;;;;84.50;41.92;;;14.50;99.90;;;13.73;100.00;98046.47;4967486;28;20056;-77
2023/05/09 02:36:07;;;;;;;61.25;37.65;;;14.50;99.90;;;13.83;100.00;98049.50;4958957;28;20050;-77
2023/05/09 02:38:35;;;;;;;56.65;37.33;;;14.50;99.90;;;13.78;100.00;98050.56;4963168;28;20062;-77
2023/05/09 02:41:02;;;;;;;51.10;35.80;;;14.50;99.90;;;13.84;100.00;98052.03;4970640;28;20058;-77
2023/05/09 02:43:29;;;;;;;47.80;34.58;;;14.50;99.90;;;13.86;100.00;98044.97;4970919;28;20062;-77
2023/05/09 02:45:56;;;;;;;57.53;37.95;;;14.50;99.90;;;13.90;100.00;98049.13;4963289;28;20047;-77
2023/05/09 02:48:26;;;;;;;42.03;29.60;;;14.50;99.90;;;13.97;100.00;98042.69;4961410;28;20050;-77
2023/05/09 02:50:53;;;;;;;46.65;33.13;;;14.50;99.90;;;13.90;100.00;98033.47;4962363;28;20074;-77
2023/05/09 02:53:20;;;;;;;47.40;32.13;;;14.50;99.90;;;13.97;100.00;98023.56;4963592;28;20059;-77
2023/05/09 02:55:47;;;;;;;40.55;30.95;;;14.50;99.90;;;13.96;100.00;98021.91;4963946;28;20630;-77
2023/05/09 02:58:14;;;;;;;44.10;31.60;;;14.50;99.90;;;13.91;100.00;98016.91;4964460;28;20051;-77
2023/05/09 03:00:42;;;;;;;51.78;35.53;;;14.50;99.90;;;13.75;100.00;98000.28;4968183;28;20443;-77
2023/05/09 03:03:09;;;;;;;53.90;36.08;;;14.50;99.90;;;13.78;100.00;98002.78;4969363;28;20050;-77
2023/05/09 03:05:37;;;;;;;38.95;30.17;;;14.40;99.90;;;13.83;100.00;98007.75;4967425;28;20077;-77
2023/05/09 03:08:04;;;;;;;56.28;33.92;;;14.40;99.90;;;13.90;100.00;98007.38;4974053;28;20150;-77
2023/05/09 03:10:31;;;;;;;46.63;31.05;;;14.30;99.90;;;14.02;100.00;97998.09;4972199;28;20051;-77
2023/05/09 03:13:00;;;;;;;47.13;30.23;;;14.30;99.90;;;14.01;100.00;97999.03;4965745;28;20055;-77
2023/05/09 03:15:27;;;;;;;65.35;36.17;;;14.40;99.90;;;13.85;100.00;98004.16;4971462;28;20086;-77
2023/05/09 03:17:54;;;;;;;70.13;37.58;;;14.30;99.90;;;13.80;100.00;98004.38;4989425;28;20073;-77
2023/05/09 03:20:21;;;;;;;265.02;50.85;;;14.30;99.90;;;13.71;100.00;98014.44;4974762;28;20058;-77
2023/05/09 03:22:48;;;;;;;314.58;53.78;;;14.20;99.90;;;13.71;100.00;98015.25;4972751;28;20059;-77
2023/05/09 03:25:15;;;;;;;270.65;51.55;;;14.20;99.90;;;13.70;100.00;98012.72;4970601;28;20067;-77
2023/05/09 03:27:43;;;;;;;163.88;42.05;;;14.10;99.90;;;13.69;100.00;98019.72;4974074;28;20050;-77
2023/05/09 03:30:11;;;;;;;109.45;39.65;;;14.10;99.90;;;13.61;100.00;98014.00;4975516;28;20095;-77
2023/05/09 03:32:38;;;;;;;104.50;38.20;;;14.20;99.90;;;13.60;100.00;98017.53;4953531;28;20068;-77
2023/05/09 03:35:06;;;;;;;176.70;41.47;;;14.20;99.90;;;13.54;100.00;98010.00;4971775;28;20529;-77
2023/05/09 03:37:33;;;;;;;183.23;42.13;;;14.20;99.90;;;13.67;100.00;98005.88;4974229;28;20058;-77
2023/05/09 03:40:00;;;;;;;62.83;31.60;;;14.30;99.90;;;13.88;100.00;98017.03;4969038;28;20270;-78
2023/05/09 03:42:28;;;;;;;58.47;30.85;;;14.40;99.90;;;13.96;100.00;98008.84;4971543;28;20059;-77
2023/05/09 03:44:55;;;;;;;81.43;33.88;;;14.40;99.90;;;13.84;100.00;98006.81;4968914;28;20050;-77
2023/05/09 03:47:22;;;;;;;183.00;47.60;;;14.50;99.90;;;13.71;100.00;98004.81;4970607;28;20043;-77
2023/05/09 03:49:49;;;;;;;224.68;49.28;;;14.50;99.90;;;13.76;100.00;98012.44;4970769;28;20538;-77
2023/05/09 03:52:19;;;;;;;194.40;42.85;;;14.40;99.90;;;13.86;100.00;98010.22;4971216;28;20594;-77
2023/05/09 03:54:46;;;;;;;292.35;56.85;;;14.30;99.90;;;13.69;100.00;98006.66;4970258;28;20479;-77
2023/05/09 03:57:13;;;;;;;266.45;51.10;;;14.30;99.90;;;13.75;100.00;98014.19;4975236;28;20134;-77
2023/05/09 03:59:40;;;;;;;263.92;48.47;;;14.20;99.90;;;13.70;100.00;98010.94;4968193;28;20528;-77
2023/05/09 04:02:07;;;;;;;438.95;58.78;;;14.20;99.90;;;13.63;100.00;98011.31;4972242;28;20125;-77
2023/05/09 04:04:34;;;;;;;460.42;61.58;;;14.20;99.90;;;13.62;100.00;98007.03;4984735;28;20050;-77
2023/05/09 04:07:02;;;;;;;262.13;42.67;;;14.20;99.90;;;13.74;100.00;98009.88;4972121;28;20065;-77
2023/05/09 04:09:29;;;;;;;314.83;46.75;;;14.10;99.90;;;13.68;100.00;98007.56;4967571;28;20055;-77
2023/05/09 04:11:56;;;;;;;428.27;57.78;;;14.20;99.90;;;13.59;100.00;98006.28;4974594;28;20062;-77
2023/05/09 04:14:23;;;;;;;293.30;56.85;;;14.20;99.90;;;13.65;100.00;98015.53;4972756;28;20061;-77
2023/05/09 04:16:50;;;;;;;294.58;46.65;;;14.20;99.90;;;13.73;100.00;98009.94;4952302;28;20050;-77
2023/05/09 04:19:17;;;;;;;180.32;39.65;;;14.20;99.90;;;13.75;100.00;98014.19;4972066;28;20475;-77
2023/05/09 04:21:44;;;;;;;209.57;43.30;;;14.20;99.90;;;13.76;100.00;98005.44;4972890;28;20059;-77
2023/05/09 04:24:11;;;;;;;149.40;32.55;;;14.30;99.90;;;13.86;100.00;98000.59;4970069;28;20421;-77
2023/05/09 04:26:39;;;;;;;203.95;44.05;;;14.30;99.90;;;13.90;100.00;98002.16;4953264;28;20093;-77
2023/05/09 04:29:06;;;;;;;308.45;48.38;;;14.40;99.90;;;13.94;100.00;98008.09;4971494;28;20051;-77
2023/05/09 04:31:34;;;;;;;285.15;43.05;;;14.40;99.90;;;13.97;100.00;98003.53;4969552;28;20054;-77
2023/05/09 04:34:02;;;;;;;251.48;48.63;;;14.30;99.90;;;13.73;100.00;98004.72;4981859;28;20043;-77
2023/05/09 04:36:30;;;;;;;115.05;37.45;;;14.30;99.90;;;13.81;100.00;98002.59;4972850;28;20130;-77
2023/05/09 04:38:57;;;;;;;197.93;43.25;;;14.30;99.90;;;13.87;100.00;97993.66;4969333;28;20162;-78
2023/05/09 04:41:24;;;;;;;129.23;37.58;;;14.30;99.90;;;13.79;100.00;98000.06;4967327;28;20059;-77
2023/05/09 04:43:52;;;;;;;258.73;53.10;;;14.40;99.90;;;13.68;100.00;97991.91;4975081;28;20426;-77
2023/05/09 04:46:19;;;;;;;193.35;42.05;;;14.30;99.90;;;13.71;100.00;97985.72;4971062;28;20051;-77
2023/05/09 04:48:46;;;;;;;109.40;35.85;;;14.30;99.90;;;13.81;100.00;97985.19;4947262;28;20539;-78
2023/05/09 04:51:14;;;;;;;177.82;35.97;;;14.30;99.90;;;13.89;100.00;97984.81;4971866;28;20051;-77
2023/05/09 04:53:41;;;;;;;238.48;40.15;;;14.30;99.90;;;13.92;100.00;97989.03;4970314;28;20056;-78
2023/05/09 04:56:08;;;;;;;75.85;30.40;;;14.30;99.90;;;13.94;100.00;97985.44;4965722;28;20765;-77
2023/05/09 04:58:38;;;;;;;177.70;35.90;;;14.40;99.90;;;13.95;100.00;97979.28;4953319;28;20230;-77
2023/05/09 05:01:05;;;;;;;179.63;39.15;;;14.40;99.90;;;14.00;100.00;97976.44;4971514;28;20051;-77
2023/05/09 05:03:33;;;;;;;72.07;32.72;;;14.50;99.90;;;14.22;100.00;97971.81;4953660;28;20057;-77
2023/05/09 05:06:00;;;;;;;48.58;26.73;;;14.60;99.90;;;14.37;100.00;97964.97;4962217;28;20058;-77
2023/05/09 05:08:28;;;;;;;48.17;28.40;;;14.70;99.90;;;14.40;100.00;97951.75;4971080;28;20047;-77
2023/05/09 05:10:57;;;;;;;58.28;30.70;;;14.80;99.90;;;14.42;100.00;97947.31;4967130;28;20050;-77
2023/05/09 05:13:24;;;;;;;33.78;23.40;;;14.90;99.90;;;14.44;100.00;97945.44;4955513;28;20053;-77
2023/05/09 05:15:52;;;;;;;68.47;31.17;;;15.00;99.90;;;14.35;100.00;97935.50;4964532;28;20047;-76
2023/05/09 05:18:20;;;;;;;46.15;28.40;;;15.00;99.90;;;14.39;100.00;97937.03;4961825;28;20058;-77
2023/05/09 05:20:47;;;;;;;58.92;29.17;;;15.00;99.90;;;14.36;100.00;97942.38;4960469;28;20062;-77
2023/05/09 05:23:14;;;;;;;40.05;26.70;;;15.00;99.90;;;14.45;100.00;97933.22;4968135;28;20062;-77
2023/05/09 05:25:41;;;;;;;54.33;31.15;;;14.90;99.90;;;14.43;100.00;97937.69;4966636;28;20061;-77
2023/05/09 05:28:09;;;;;;;79.30;32.67;;;14.90;99.90;;;14.30;100.00;97939.25;4968990;28;20053;-76
2023/05/09 05:30:36;;;;;;;54.55;27.38;;;14.90;99.90;;;14.36;100.00;97945.00;4975150;28;20050;-76
2023/05/09 05:33:03;;;;;;;73.45;35.95;;;14.90;99.90;;;13.94;100.00;97938.47;4970126;28;20114;-77
2023/05/09 05:35:30;;;;;;;77.68;35.78;;;14.80;99.90;;;13.93;100.00;97943.75;4974743;28;20069;-77
2023/05/09 05:37:57;;;;;;;70.20;34.42;;;14.70;99.90;;;14.02;100.00;97945.88;4972649;28;20055;-77
2023/05/09 05:40:25;;;;;;;64.43;34.60;;;14.50;99.90;;;14.00;100.00;97948.59;4965612;28;20051;-76
2023/05/09 05:42:53;;;;;;;57.38;33.28;;;14.60;99.90;;;13.96;100.00;97941.84;4968249;28;20055;-77
2023/05/09 05:45:20;;;;;;;61.53;34.50;;;14.60;99.90;;;13.96;100.00;97946.22;4974064;28;20129;-77
2023/05/09 05:47:47;;;;;;;58.72;34.05;;;14.60;99.90;;;14.06;100.00;97943.97;4969772;28;20055;-77
2023/05/09 05:50:18;;;;;;;52.90;31.60;;;14.50;99.90;;;14.18;100.00;97940.72;4968477;28;20057;-77
2023/05/09 05:52:49;;;;;;;71.53;37.63;;;14.50;99.90;;;13.99;100.00;97943.44;4975549;28;20080;-76
2023/05/09 05:55:17;;;;;;;64.03;34.95;;;14.50;99.90;;;14.04;100.00;97928.38;4969531;28;20059;-77
2023/05/09 05:57:45;;;;;;;59.58;36.35;;;14.40;99.90;;;14.19;100.00;97926.78;4964030;28;20058;-76
2023/05/09 06:00:14;;;;;;;50.72;31.65;;;14.40;99.90;;;14.46;100.00;97921.00;4972412;28;20042;-76
2023/05/09 06:02:44;;;;;;;59.28;36.30;;;14.60;99.90;;;14.33;100.00;97923.44;4967655;28;20059;-77
2023/05/09 06:05:11;;;;;;;46.30;31.55;;;14.70;99.90;;;14.63;100.00;97923.63;4966151;28;20058;-77
2023/05/09 06:07:40;;;;;;;54.13;36.63;;;14.80;99.90;;;14.31;100.00;97912.22;4974349;28;20429;-77
2023/05/09 06:10:07;;;;;;;49.40;32.72;;;14.80;99.90;;;14.52;100.00;97916.31;4970599;28;20047;-77
2023/05/09 06:12:34;;;;;;;48.80;34.03;;;14.90;99.90;;;14.62;100.00;97914.09;4966418;28;20077;-77
2023/05/09 06:15:04;;;;;;;42.60;31.15;;;15.00;99.90;;;14.42;100.00;97908.13;4965258;28;20061;-77
2023/05/09 06:17:32;;;;;;;46.95;31.92;;;15.00;99.90;;;14.53;100.00;97897.13;4963682;28;20062;-76
2023/05/09 06:20:00;;;;;;;35.00;28.10;;;15.00;99.90;;;14.84;100.00;97903.31;4961533;28;20055;-77
2023/05/09 06:22:29;;;;;;;39.72;29.13;;;15.10;99.90;;;14.77;100.00;97892.34;4955319;28;20060;-77
2023/05/09 06:24:59;;;;;;;39.38;29.42;;;15.30;99.90;;;14.92;100.00;97885.47;4968895;28;20058;-77
2023/05/09 06:27:26;;;;;;;39.17;29.60;;;15.30;99.90;;;15.02;100.00;97877.94;4967776;28;20061;-77
2023/05/09 06:29:55;;;;;;;29.25;25.02;;;15.40;99.90;;;15.30;100.00;97876.38;4967009;28;20055;-77
2023/05/09 06:32:23;;;;;;;31.05;25.63;;;15.40;99.90;;;15.00;100.00;97872.78;4967536;28;20050;-77
2023/05/09 06:34:51;;;;;;;27.52;23.55;;;15.50;99.90;;;15.22;100.00;97866.38;4964167;28;20055;-77
2023/05/09 06:37:18;;;;;;;28.40;24.27;;;15.60;99.90;;;15.24;100.00;97869.75;4970359;28;20047;-77
2023/05/09 06:39:45;;;;;;;23.42;19.90;;;15.60;99.90;;;15.23;100.00;97865.41;4966847;28;20059;-76
2023/05/09 06:42:12;;;;;;;21.25;18.05;;;15.40;99.90;;;15.21;100.00;97855.06;4969167;28;20816;-77
2023/05/09 06:44:40;;;;;;;21.58;19.33;;;15.30;99.90;;;14.91;100.00;97848.94;4964707;28;20051;-77
2023/05/09 06:47:07;;;;;;;18.77;16.45;;;15.20;99.90;;;15.16;100.00;97830.94;4969320;28;20090;-76
2023/05/09 06:49:33;;;;;;;18.30;16.48;;;15.10;99.90;;;15.16;100.00;97825.69;4966624;28;20071;-77
2023/05/09 06:52:01;;;;;;;16.77;14.98;;;15.20;99.90;;;15.44;100.00;97819.75;4971030;28;20129;-77
2023/05/09 06:54:29;;;;;;;17.10;15.30;;;15.40;99.90;;;15.22;100.00;97807.06;4973103;28;20057;-77
2023/05/09 06:56:56;;;;;;;16.83;15.13;;;15.40;99.90;;;15.27;100.00;97812.03;4966668;28;20146;-76
2023/05/09 06:59:23;;;;;;;16.92;13.52;;;15.50;99.90;;;15.44;100.00;97790.97;4955026;28;20053;-77
2023/05/09 07:01:50;;;;;;;17.10;13.90;;;15.40;99.90;;;15.62;100.00;97783.81;4971209;28;20489;-78
2023/05/09 07:04:17;;;;;;;15.57;13.38;;;15.40;99.90;;;15.70;100.00;97775.47;4966554;28;20575;-77
2023/05/09 07:06:44;;;;;;;14.10;12.10;;;15.50;99.90;;;15.93;100.00;97760.19;4970217;28;20061;-77
2023/05/09 07:09:16;;;;;;;18.80;13.70;;;15.60;99.90;;;15.79;100.00;97746.16;4970175;28;20054;-77
2023/05/09 07:11:44;;;;;;;13.23;11.82;;;15.70;99.90;;;16.06;100.00;97734.94;4970172;28;20592;-77
2023/05/09 07:14:12;;;;;;;12.07;10.63;;;15.80;99.90;;;16.03;100.00;97719.41;4962736;28;20062;-77
2023/05/09 07:16:39;;;;;;;15.75;10.82;;;16.00;99.90;;;15.67;100.00;97708.47;4968012;28;20054;-77
2023/05/09 07:19:06;;;;;;;10.85;8.70;;;16.30;99.90;;;16.15;100.00;97695.09;4966834;28;20166;-77
2023/05/09 07:21:34;;;;;;;10.55;8.82;;;16.30;99.90;;;16.14;100.00;97685.53;4965046;28;20057;-77
2023/05/09 07:24:01;;;;;;;11.55;8.13;;;16.20;99.90;;;16.30;100.00;97677.53;4938517;28;20050;-78
2023/05/09 07:26:28;;;;;;;9.60;8.30;;;16.10;99.90;;;16.70;100.00;97654.81;4963068;28;20051;-77
2023/05/09 07:28:55;;;;;;;9.52;7.65;;;16.20;99.90;;;16.66;100.00;97640.25;4961020;28;20055;-77
2023/05/09 07:31:22;;;;;;;11.70;6.95;;;16.50;99.90;;;16.81;100.00;97638.44;4961995;28;20384;-77
2023/05/09 07:33:50;;;;;;;7.97;6.72;;;16.50;99.90;;;16.62;100.00;97637.91;4969873;28;20248;-77
2023/05/09 07:36:17;;;;;;;10.48;7.78;;;16.30;99.90;;;16.04;100.00;97630.31;4966831;28;20046;-77
2023/05/09 07:38:46;;;;;;;8.10;6.78;;;16.40;99.90;;;16.00;100.00;97634.03;4967054;28;20106;-77
2023/05/09 07:41:14;;;;;;;12.65;9.10;;;16.40;99.90;;;16.24;100.00;97634.25;4965008;28;20483;-77
2023/05/09 07:43:41;;;;;;;9.40;8.05;;;16.50;99.90;;;15.95;100.00;97630.06;4945581;28;20055;-77
2023/05/09 07:46:08;;;;;;;8.90;7.10;;;16.40;99.90;;;16.42;100.00;97628.75;4966169;28;20043;-77
2023/05/09 07:48:36;;;;;;;8.50;7.38;;;16.50;99.90;;;16.34;100.00;97625.81;4972223;28;20058;-77
2023/05/09 07:51:03;;;;;;;7.97;7.13;;;16.50;99.90;;;16.31;100.00;97624.22;4969918;28;20222;-77
2023/05/09 07:53:30;;;;;;;8.80;6.70;;;16.70;99.90;;;16.31;100.00;97626.84;4976308;28;20043;-76
2023/05/09 07:55:58;;;;;;;7.50;6.70;;;16.70;99.90;;;16.51;100.00;97615.91;4953656;28;20042;-77
2023/05/09 07:58:25;;;;;;;7.75;6.95;;;16.80;99.90;;;16.48;100.00;97612.63;4964721;28;20862;-77
2023/05/09 08:00:55;;;;;;;9.20;6.35;;;16.90;99.90;;;16.83;100.00;97601.59;4969913;28;20541;-77
2023/05/09 08:03:23;;;;;;;7.65;6.57;;;16.70;99.90;;;16.77;100.00;97594.97;4970123;28;20047;-77
2023/05/09 08:05:55;;;;;;;9.43;6.53;;;16.90;99.90;;;16.87;100.00;97587.34;4971226;28;20450;-77
2023/05/09 08:08:22;;;;;;;7.70;6.17;;;17.10;99.90;;;17.38;100.00;97591.72;4963772;28;20102;-77
2023/05/09 08:10:49;;;;;;;8.52;5.35;;;17.20;99.90;;;17.45;100.00;97582.50;4969018;28;20066;-77
2023/05/09 08:13:17;;;;;;;6.72;5.00;;;17.20;99.90;;;17.56;100.00;97570.28;4973584;28;20043;-77
2023/05/09 08:15:44;;;;;;;8.35;6.05;;;17.50;99.90;;;17.32;100.00;97566.78;4967321;28;20058;-77
2023/05/09 08:18:11;;;;;;;8.32;6.45;;;17.80;99.90;;;17.31;100.00;97559.81;4974156;28;20147;-77
2023/05/09 08:20:39;;;;;;;8.98;6.43;;;17.90;99.90;;;17.43;100.00;97556.34;4969287;28;20133;-77
2023/05/09 08:23:07;;;;;;;7.43;5.97;;;17.60;99.90;;;17.35;100.00;97558.66;4972008;28;20566;-77
2023/05/09 08:25:34;;;;;;;7.95;6.78;;;17.40;99.90;;;17.10;100.00;97556.91;4978584;28;20140;-77
2023/05/09 08:28:01;;;;;;;8.52;6.47;;;17.50;99.90;;;17.22;100.00;97547.34;4972343;28;20054;-77
2023/05/09 08:30:29;;;;;;;9.07;6.32;;;17.30;99.90;;;17.83;100.00;97543.03;4967493;28;20043;-78
2023/05/09 08:32:56;;;;;;;6.28;5.50;;;17.70;99.90;;;18.40;100.00;97541.47;4971780;28;20053;-77
2023/05/09 08:35:23;;;;;;;9.57;5.10;;;18.20;99.90;;;18.38;100.00;97532.84;4967196;28;20427;-77
2023/05/09 08:37:50;;;;;;;8.25;5.70;;;18.50;99.90;;;17.96;100.00;97530.66;4949372;28;20050;-77
2023/05/09 08:40:18;;;;;;;5.75;4.55;;;18.40;99.90;;;18.56;100.00;97525.38;4967785;28;20576;-77
2023/05/09 08:42:48;;;;;;;9.13;6.13;;;18.70;99.90;;;18.95;100.00;97534.69;4952827;28;20819;-77
2023/05/09 08:45:25;;;;;;;7.75;5.63;;;19.10;99.90;;;18.60;100.00;97519.78;4953241;28;20062;-77
2023/05/09 08:47:53;;;;;;;10.02;5.38;;;19.20;99.90;;;18.88;100.00;97519.47;4959084;28;20126;-78
2023/05/09 08:50:21;;;;;;;7.07;4.47;;;19.00;99.90;;;18.96;100.00;97514.47;4956595;28;20507;-77
2023/05/09 08:52:51;;;;;;;6.68;4.15;;;19.00;99.90;;;19.30;100.00;97512.66;4966236;28;20514;-78
2023/05/09 08:55:18;;;;;;;5.85;3.80;;;19.30;99.90;;;19.21;100.00;97508.97;4971483;28;20060;-77
2023/05/09 08:57:45;;;;;;;7.50;4.63;;;19.40;99.90;;;18.75;100.00;97507.25;4956932;28;20052;-78
2023/05/09 09:00:14;;;;;;;6.72;4.68;;;19.30;99.90;;;18.73;100.00;97508.31;4969622;28;20058;-78
2023/05/09 09:02:46;;;;;;;8.90;5.22;;;18.80;99.90;;;18.64;100.00;97509.88;4958689;28;20058;-77
2023/05/09 09:05:14;;;;;;;8.10;6.35;;;18.40;99.90;;;18.21;100.00;97509.66;4968940;28;20046;-78
2023/05/09 09:08:06;;;;;;;28.73;19.92;;;18.30;99.90;;;18.33;100.00;97499.03;4970869;28;20451;-77
2023/05/09 09:10:34;;;;;;;7.05;5.25;;;18.20;99.90;;;17.99;100.00;97492.84;4972180;28;20110;-77
2023/05/09 09:13:03;;;;;;;7.18;4.75;;;18.40;99.90;;;19.02;100.00;97498.19;4966377;28;20089;-77
2023/05/09 09:15:35;;;;;;;10.45;5.28;;;18.80;99.90;;;19.27;100.00;97488.38;4962893;28;20047;-77
2023/05/09 09:18:08;;;;;;;5.22;3.97;;;19.40;99.90;;;19.50;100.00;97481.25;4966491;28;20134;-77
2023/05/09 09:21:05;;;;;;;6.50;5.03;;;19.80;99.90;;;19.23;100.00;97480.72;4968209;28;20056;-76
2023/05/09 09:23:33;;;;;;;18.35;14.95;;;20.00;99.90;;;19.42;100.00;97476.63;4955290;28;20055;-77
2023/05/09 09:26:03;;;;;;;6.43;4.93;;;20.00;99.90;;;19.20;100.00;97473.09;4964133;28;20046;-77
2023/05/09 09:28:31;;;;;;;7.47;6.00;;;19.40;99.90;;;19.11;100.00;97470.31;4958286;28;20432;-78
2023/05/09 09:30:58;;;;;;;6.18;4.55;;;19.00;99.90;;;18.86;100.00;97468.78;4941738;28;20419;-78
2023/05/09 09:33:28;;;;;;;7.13;4.50;;;18.80;99.90;;;18.21;100.00;97463.19;4965278;28;20428;-79
2023/05/09 09:35:56;;;;;;;6.13;4.32;;;18.80;99.90;;;18.33;100.00;97461.41;4970780;28;20058;-79
2023/05/09 09:38:24;;;;;;;9.75;4.72;;;18.70;99.90;;;18.28;100.00;97453.06;4968723;28;20083;-78
2023/05/09 09:40:51;;;;;;;6.60;3.90;;;18.80;99.90;;;18.29;100.00;97455.59;4951964;28;20664;-79
2023/05/09 09:43:25;;;;;;;5.55;3.80;;;18.60;99.90;;;18.36;100.00;97453.31;4967505;28;20047;-79
2023/05/09 09:45:53;;;;;;;6.13;4.40;;;18.40;99.90;;;18.57;100.00;97451.66;4976389;28;20042;-77
2023/05/09 09:48:34;;;;;;;9.45;7.80;;;18.30;99.90;;;18.35;100.00;97444.59;4966292;28;20054;-77
2023/05/09 09:51:11;;;;;;;8.57;6.75;;;18.00;99.90;;;18.42;100.00;97446.75;4971777;28;20763;-77
2023/05/09 09:53:43;;;;;;;5.00;2.97;;;18.20;99.90;;;19.10;100.00;97434.47;4948926;28;20138;-76
2023/05/09 09:56:10;;;;;;;4.85;3.50;;;18.60;99.90;;;19.15;100.00;97416.50;4975365;28;20061;-77
2023/05/09 09:58:37;;;;;;;4.10;3.00;;;18.90;99.90;;;19.97;100.00;97416.84;4955558;28;20597;-78
2023/05/09 10:01:21;;;;;;;5.78;2.53;;;19.40;99.90;;;20.43;100.00;97412.94;4973221;28;20054;-78
2023/05/09 10:03:48;;;;;;;4.05;2.50;;;20.30;99.90;;;21.16;100.00;97409.38;4974502;28;20054;-77
2023/05/09 10:06:16;;;;;;;4.22;2.35;;;21.10;99.90;;;21.00;100.00;97409.88;4973892;28;20141;-77
2023/05/09 10:08:47;;;;;;;18.02;14.82;;;20.80;99.90;;;20.51;100.00;97403.56;4974713;28;20089;-78